Time;durP1;ratioP1;P1;durP2;ratioP2;P2;SDS_P1;SDS_P2;PMS_P1;PMS_P2;Temp;Humidity;BMP_temperature;BMP_pressure;BME280_temperature;BME280_humidity;BME280_pressure;Samples;Min_cycle;Max_cycle;Signal;HPM_P1;HPM_P2
2022/04/17 00:00:55;;;;;;;13.00;6.78;;;;;;;;;;5008013;28;20104;-73
2022/04/17 00:03:24;;;;;;;13.63;6.32;;;;;;;;;;4999876;28;20034;-72
2022/04/17 00:05:50;;;;;;;12.63;6.43;;;;;;;;;;4999710;28;20097;-73
2022/04/17 00:08:16;;;;;;;16.55;6.82;;;;;;;;;;5006462;28;20125;-73
2022/04/17 00:10:42;;;;;;;10.63;6.20;;;;;;;;;;4997180;28;20133;-73
2022/04/17 00:13:08;;;;;;;14.40;6.10;;;;;;;;;;5001828;28;20064;-73
2022/04/17 00:15:34;;;;;;;13.55;6.07;;;;;;;;;;5002766;28;20026;-73
2022/04/17 00:18:00;;;;;;;10.27;6.10;;;;;;;;;;5013354;28;20038;-73
2022/04/17 00:20:26;;;;;;;12.55;6.45;;;;;;;;;;5004448;28;20733;-72
2022/04/17 00:22:52;;;;;;;13.25;6.15;;;;;;;;;;5001733;28;20053;-73
2022/04/17 00:25:18;;;;;;;9.38;5.63;;;;;;;;;;4998762;28;20489;-73
2022/04/17 00:27:44;;;;;;;14.50;5.88;;;;;;;;;;5002375;28;20392;-73
2022/04/17 00:30:11;;;;;;;9.65;5.88;;;;;;;;;;5001867;28;20041;-73
2022/04/17 00:32:37;;;;;;;9.68;5.90;;;;;;;;;;4997547;28;20041;-73
2022/04/17 00:35:04;;;;;;;9.23;5.40;;;;;;;;;;5001211;28;20026;-73
2022/04/17 00:37:30;;;;;;;9.90;5.60;;;;;;;;;;4996429;28;20525;-73
2022/04/17 00:39:56;;;;;;;8.20;5.53;;;;;;;;;;5003275;28;20091;-72
2022/04/17 00:42:22;;;;;;;8.75;5.05;;;;;;;;;;5007758;28;20034;-73
2022/04/17 00:44:48;;;;;;;9.48;4.93;;;;;;;;;;5002516;28;20041;-73
2022/04/17 00:47:16;;;;;;;11.30;5.20;;;;;;;;;;5004324;28;20026;-73
2022/04/17 00:49:45;;;;;;;9.23;5.25;;;;;;;;;;4997301;28;20030;-73
2022/04/17 00:52:11;;;;;;;8.25;4.75;;;;;;;;;;5003096;28;20026;-73
2022/04/17 00:54:44;;;;;;;7.95;4.65;;;;;;;;;;4996992;28;20022;-73
2022/04/17 00:57:11;;;;;;;7.03;4.47;;;;;;;;;;4999475;28;20122;-73
2022/04/17 00:59:38;;;;;;;10.68;5.40;;;;;;;;;;4997802;28;20025;-73
2022/04/17 01:02:06;;;;;;;8.13;5.18;;;;;;;;;;4995863;28;20026;-73
2022/04/17 01:04:32;;;;;;;8.60;5.47;;;;;;;;;;5005211;28;20018;-73
2022/04/17 01:06:58;;;;;;;8.55;5.25;;;;;;;;;;4992434;28;20042;-73
2022/04/17 01:09:24;;;;;;;11.65;5.70;;;;;;;;;;4996993;28;20104;-73
2022/04/17 01:11:51;;;;;;;12.15;6.43;;;;;;;;;;5003479;28;20040;-73
2022/04/17 01:14:21;;;;;;;13.40;7.03;;;;;;;;;;5004694;28;20109;-73
2022/04/17 01:16:47;;;;;;;15.40;7.32;;;;;;;;;;4995828;28;20030;-73
2022/04/17 01:19:13;;;;;;;16.63;6.68;;;;;;;;;;4994992;28;20107;-73
2022/04/17 01:21:43;;;;;;;14.30;7.22;;;;;;;;;;5006797;28;20469;-72
2022/04/17 01:26:58;;;;;;;12.07;5.30;;;;;;;;;;5008217;28;20025;-73
2022/04/17 01:29:35;;;;;;;10.10;5.63;;;;;;;;;;5009999;28;20026;-73
2022/04/17 01:32:03;;;;;;;9.95;5.38;;;;;;;;;;4995348;28;20038;-73
2022/04/17 01:34:29;;;;;;;9.23;5.40;;;;;;;;;;4998950;28;20172;-73
2022/04/17 01:36:55;;;;;;;9.50;5.35;;;;;;;;;;5002066;28;20030;-73
2022/04/17 01:39:21;;;;;;;8.73;4.90;;;;;;;;;;5003741;28;20022;-73
2022/04/17 01:41:47;;;;;;;11.05;5.43;;;;;;;;;;5010432;28;20051;-74
2022/04/17 01:44:16;;;;;;;7.63;4.80;;;;;;;;;;5003885;28;20081;-73
2022/04/17 01:46:42;;;;;;;9.23;5.28;;;;;;;;;;5000549;28;20393;-73
2022/04/17 01:49:08;;;;;;;8.20;5.15;;;;;;;;;;5009769;28;20034;-73
2022/04/17 01:51:40;;;;;;;8.90;4.78;;;;;;;;;;5006158;28;20022;-73
2022/04/17 01:54:06;;;;;;;7.28;4.88;;;;;;;;;;4998663;28;20022;-73
2022/04/17 01:56:33;;;;;;;8.20;4.90;;;;;;;;;;5003698;28;20029;-73
2022/04/17 01:58:58;;;;;;;8.88;4.75;;;;;;;;;;4997125;28;20389;-73
2022/04/17 02:01:24;;;;;;;6.85;4.03;;;;;;;;;;5005546;28;20044;-72
2022/04/17 02:03:50;;;;;;;7.35;4.70;;;;;;;;;;4999925;28;20032;-74
2022/04/17 02:06:16;;;;;;;5.97;4.15;;;;;;;;;;5012178;28;20034;-73
2022/04/17 02:08:44;;;;;;;6.43;4.35;;;;;;;;;;5001280;28;20065;-73
2022/04/17 02:11:10;;;;;;;7.18;3.97;;;;;;;;;;4997034;28;20054;-73
2022/04/17 02:13:36;;;;;;;6.05;3.85;;;;;;;;;;4998172;28;20057;-73
2022/04/17 02:16:02;;;;;;;4.55;3.70;;;;;;;;;;5002915;28;20036;-73
2022/04/17 02:18:28;;;;;;;6.63;3.92;;;;;;;;;;5008682;28;20084;-72
2022/04/17 02:20:54;;;;;;;6.82;4.03;;;;;;;;;;5005555;28;20037;-73
2022/04/17 02:23:20;;;;;;;8.50;4.30;;;;;;;;;;5003387;28;20026;-72
2022/04/17 02:25:46;;;;;;;6.63;3.92;;;;;;;;;;5007598;28;20230;-73
2022/04/17 02:28:14;;;;;;;6.85;4.28;;;;;;;;;;5005414;28;21477;-73
2022/04/17 02:30:40;;;;;;;6.20;3.97;;;;;;;;;;5011366;28;20108;-73
2022/04/17 02:33:06;;;;;;;6.47;4.38;;;;;;;;;;5008352;28;20049;-73
2022/04/17 02:35:32;;;;;;;6.03;3.97;;;;;;;;;;5005142;28;20064;-73
2022/04/17 02:37:58;;;;;;;7.30;4.40;;;;;;;;;;5010030;28;20041;-73
2022/04/17 02:40:23;;;;;;;5.68;3.88;;;;;;;;;;5007069;28;20026;-73
2022/04/17 02:42:50;;;;;;;5.82;3.85;;;;;;;;;;5010597;28;20037;-73
2022/04/17 02:45:17;;;;;;;9.30;4.20;;;;;;;;;;5006431;28;20029;-72
2022/04/17 02:47:43;;;;;;;6.47;4.10;;;;;;;;;;5006294;28;20034;-72
2022/04/17 02:50:09;;;;;;;7.97;3.83;;;;;;;;;;5000906;28;20053;-72
2022/04/17 02:52:35;;;;;;;6.47;4.07;;;;;;;;;;4996243;28;20034;-72
2022/04/17 02:55:01;;;;;;;7.50;4.13;;;;;;;;;;4999450;28;20465;-72
2022/04/17 02:57:28;;;;;;;5.55;3.88;;;;;;;;;;5000409;28;20757;-72
2022/04/17 02:59:53;;;;;;;7.90;4.40;;;;;;;;;;5006452;28;20428;-72
2022/04/17 03:07:49;;;;;;;6.68;3.80;;;;;;;;;;4999721;28;20052;-73
2022/04/17 03:10:15;;;;;;;7.78;3.78;;;;;;;;;;4998107;28;20050;-72
2022/04/17 03:12:41;;;;;;;6.25;4.22;;;;;;;;;;5005168;28;20040;-72
2022/04/17 03:15:07;;;;;;;6.40;4.05;;;;;;;;;;5006126;28;20030;-72
2022/04/17 03:17:33;;;;;;;7.70;3.83;;;;;;;;;;5009442;28;20391;-72
2022/04/17 03:19:59;;;;;;;5.50;4.03;;;;;;;;;;5003198;28;20032;-73
2022/04/17 03:22:25;;;;;;;8.02;4.05;;;;;;;;;;5006115;28;20026;-73
2022/04/17 03:24:51;;;;;;;6.38;3.97;;;;;;;;;;5006291;28;20100;-73
2022/04/17 03:27:17;;;;;;;6.60;4.20;;;;;;;;;;5007045;28;20470;-72
2022/04/17 03:29:43;;;;;;;9.30;4.53;;;;;;;;;;5005046;28;20023;-72
2022/04/17 03:32:09;;;;;;;6.32;4.32;;;;;;;;;;5003138;28;20033;-72
2022/04/17 03:34:35;;;;;;;7.18;4.28;;;;;;;;;;5000442;28;20441;-73
2022/04/17 03:37:01;;;;;;;7.35;4.22;;;;;;;;;;5008574;28;20038;-73
2022/04/17 03:39:27;;;;;;;6.03;4.05;;;;;;;;;;5009639;28;20091;-72
2022/04/17 03:41:53;;;;;;;5.28;3.67;;;;;;;;;;5013580;28;20551;-72
2022/04/17 03:44:19;;;;;;;5.50;3.83;;;;;;;;;;5007772;28;20037;-72
2022/04/17 03:46:46;;;;;;;6.22;3.85;;;;;;;;;;5005204;28;20034;-72
2022/04/17 03:49:12;;;;;;;6.22;4.20;;;;;;;;;;5007373;28;20030;-73
2022/04/17 03:51:38;;;;;;;6.13;4.07;;;;;;;;;;5006262;28;20552;-72
2022/04/17 03:54:07;;;;;;;7.40;4.15;;;;;;;;;;5003280;28;20030;-73
2022/04/17 03:56:33;;;;;;;6.95;4.03;;;;;;;;;;5007318;28;20313;-74
2022/04/17 03:59:16;;;;;;;7.85;4.55;;;;;;;;;;5007556;28;20087;-74
2022/04/17 04:01:42;;;;;;;7.15;4.03;;;;;;;;;;5014230;28;20057;-74
2022/04/17 04:04:08;;;;;;;6.45;4.05;;;;;;;;;;5003652;28;20033;-73
2022/04/17 04:06:34;;;;;;;6.40;4.32;;;;;;;;;;5005324;28;20025;-73
2022/04/17 04:09:00;;;;;;;6.35;4.22;;;;;;;;;;5002075;28;20084;-73
2022/04/17 04:11:26;;;;;;;5.40;4.05;;;;;;;;;;5006623;28;20034;-73
2022/04/17 04:13:53;;;;;;;7.68;4.55;;;;;;;;;;5009047;28;20037;-73
2022/04/17 04:16:19;;;;;;;9.73;5.15;;;;;;;;;;5011378;28;20243;-73
2022/04/17 04:18:45;;;;;;;8.93;5.55;;;;;;;;;;5005946;28;20040;-73
2022/04/17 04:21:11;;;;;;;11.50;5.43;;;;;;;;;;5011162;28;20018;-73
2022/04/17 04:23:37;;;;;;;9.02;5.47;;;;;;;;;;5003143;28;20026;-70
2022/04/17 04:26:04;;;;;;;7.38;5.07;;;;;;;;;;5007233;28;20384;-70
2022/04/17 04:28:36;;;;;;;6.97;5.20;;;;;;;;;;5008777;28;20107;-69
2022/04/17 04:31:06;;;;;;;8.32;4.82;;;;;;;;;;5010002;28;20056;-69
2022/04/17 04:33:32;;;;;;;10.02;5.78;;;;;;;;;;5010350;28;20030;-69
2022/04/17 04:35:59;;;;;;;9.77;5.25;;;;;;;;;;5009128;28;20026;-68
2022/04/17 04:38:25;;;;;;;8.73;5.50;;;;;;;;;;5009078;28;20036;-69
2022/04/17 04:40:54;;;;;;;8.25;5.05;;;;;;;;;;5008028;28;20061;-69
2022/04/17 04:43:20;;;;;;;10.27;6.20;;;;;;;;;;5004353;28;20069;-68
2022/04/17 04:51:19;;;;;;;14.18;6.57;;;;;;;;;;5000211;28;20045;-70
2022/04/17 04:53:45;;;;;;;11.65;6.97;;;;;;;;;;5002935;28;20038;-69
2022/04/17 04:56:13;;;;;;;11.27;6.55;;;;;;;;;;5009969;28;20037;-68
2022/04/17 04:58:39;;;;;;;10.23;6.75;;;;;;;;;;5004565;28;20038;-69
2022/04/17 05:01:05;;;;;;;11.48;7.32;;;;;;;;;;4998624;28;20034;-70
2022/04/17 05:03:31;;;;;;;12.32;7.03;;;;;;;;;;5007517;28;20075;-68
2022/04/17 05:05:56;;;;;;;12.00;7.13;;;;;;;;;;5000655;28;20074;-68
2022/04/17 05:08:22;;;;;;;14.70;6.95;;;;;;;;;;4999775;28;20184;-69
2022/04/17 05:10:48;;;;;;;11.68;6.68;;;;;;;;;;5003357;28;20058;-69
2022/04/17 05:13:15;;;;;;;12.70;7.07;;;;;;;;;;5016999;28;20026;-69
2022/04/17 05:15:41;;;;;;;10.98;6.35;;;;;;;;;;5006808;28;20037;-68
2022/04/17 05:18:07;;;;;;;10.80;6.03;;;;;;;;;;5002417;28;20033;-69
2022/04/17 05:20:33;;;;;;;9.68;6.22;;;;;;;;;;5011209;28;20029;-68
2022/04/17 05:23:15;;;;;;;12.98;5.93;;;;;;;;;;5011932;28;20026;-68
2022/04/17 05:25:47;;;;;;;11.85;6.43;;;;;;;;;;5008159;28;20053;-68
2022/04/17 05:28:14;;;;;;;10.68;6.47;;;;;;;;;;5009047;28;20037;-69
2022/04/17 05:30:40;;;;;;;10.13;6.35;;;;;;;;;;5002604;28;20046;-69
2022/04/17 05:33:06;;;;;;;11.98;6.63;;;;;;;;;;5008653;28;20484;-69
2022/04/17 05:35:32;;;;;;;11.88;6.40;;;;;;;;;;5013171;28;20057;-68
2022/04/17 05:37:58;;;;;;;11.27;6.68;;;;;;;;;;5003084;28;20072;-68
2022/04/17 05:40:24;;;;;;;9.18;6.10;;;;;;;;;;5011417;28;20070;-69
2022/04/17 05:42:50;;;;;;;11.57;6.25;;;;;;;;;;5008939;28;20121;-70
2022/04/17 05:45:16;;;;;;;8.45;5.95;;;;;;;;;;5009941;28;20421;-68
2022/04/17 05:47:42;;;;;;;12.07;6.25;;;;;;;;;;5009050;28;20065;-69
2022/04/17 05:50:08;;;;;;;12.63;6.00;;;;;;;;;;5005822;28;20489;-68
2022/04/17 05:52:35;;;;;;;9.25;6.10;;;;;;;;;;5019699;28;20620;-68
2022/04/17 05:55:01;;;;;;;13.60;6.80;;;;;;;;;;5022700;28;20060;-69
2022/04/17 05:57:27;;;;;;;9.93;6.50;;;;;;;;;;5016754;28;20033;-69
2022/04/17 05:59:53;;;;;;;8.35;5.60;;;;;;;;;;5004163;28;20033;-68
2022/04/17 06:02:19;;;;;;;9.77;5.28;;;;;;;;;;5010026;28;20481;-69
2022/04/17 06:04:47;;;;;;;9.65;5.43;;;;;;;;;;5005397;28;20038;-69
2022/04/17 06:07:13;;;;;;;9.95;4.97;;;;;;;;;;5004609;28;20088;-69
2022/04/17 06:09:39;;;;;;;10.25;5.72;;;;;;;;;;5013771;28;20555;-69
2022/04/17 06:12:05;;;;;;;8.32;5.38;;;;;;;;;;5008668;28;20026;-69
2022/04/17 06:14:31;;;;;;;6.78;4.40;;;;;;;;;;5004887;28;20025;-69
2022/04/17 06:16:57;;;;;;;6.13;3.88;;;;;;;;;;5003696;28;20429;-69
2022/04/17 06:19:23;;;;;;;5.88;3.92;;;;;;;;;;5010055;28;20032;-69
2022/04/17 06:21:49;;;;;;;7.22;4.32;;;;;;;;;;5003484;28;20094;-70
2022/04/17 06:24:15;;;;;;;5.97;3.97;;;;;;;;;;5012657;28;20029;-70
2022/04/17 06:26:42;;;;;;;9.45;3.90;;;;;;;;;;5007644;28;20026;-69
2022/04/17 06:29:08;;;;;;;5.45;4.00;;;;;;;;;;5003917;28;20040;-70
2022/04/17 06:31:34;;;;;;;5.28;3.38;;;;;;;;;;5005434;28;20746;-69
2022/04/17 06:34:00;;;;;;;8.45;4.53;;;;;;;;;;5011380;28;20037;-70
2022/04/17 06:36:26;;;;;;;5.95;3.60;;;;;;;;;;5005234;28;20108;-69
2022/04/17 06:38:52;;;;;;;7.05;3.67;;;;;;;;;;5001341;28;20508;-70
2022/04/17 06:41:18;;;;;;;3.28;2.40;;;;;;;;;;5006378;28;20125;-69
2022/04/17 06:43:44;;;;;;;2.78;2.00;;;;;;;;;;5006159;28;20025;-69
2022/04/17 06:46:10;;;;;;;3.03;2.30;;;;;;;;;;5003984;28;20030;-69
2022/04/17 06:48:36;;;;;;;3.22;2.10;;;;;;;;;;5010292;28;20014;-71
2022/04/17 06:51:02;;;;;;;4.50;2.10;;;;;;;;;;5006096;28;20033;-70
2022/04/17 06:53:28;;;;;;;3.58;2.22;;;;;;;;;;5010156;28;20026;-71
2022/04/17 06:55:54;;;;;;;3.30;2.20;;;;;;;;;;5006856;28;20037;-70
2022/04/17 06:58:20;;;;;;;3.00;1.90;;;;;;;;;;5002391;28;20030;-71
2022/04/17 07:00:48;;;;;;;4.28;2.45;;;;;;;;;;5004566;28;20026;-71
2022/04/17 07:03:14;;;;;;;3.40;2.20;;;;;;;;;;5009214;28;20022;-71
2022/04/17 07:05:40;;;;;;;4.25;2.83;;;;;;;;;;5011437;28;20447;-71
2022/04/17 07:08:06;;;;;;;4.15;2.10;;;;;;;;;;5011659;28;20038;-71
2022/04/17 07:10:34;;;;;;;6.80;2.55;;;;;;;;;;5001653;28;20041;-72
2022/04/17 07:13:00;;;;;;;3.47;2.55;;;;;;;;;;5010961;28;20648;-71
2022/04/17 07:15:26;;;;;;;3.95;2.65;;;;;;;;;;5012852;28;20077;-71
2022/04/17 07:17:53;;;;;;;4.45;2.50;;;;;;;;;;5015189;28;20038;-71
2022/04/17 07:20:19;;;;;;;3.83;2.60;;;;;;;;;;5001775;28;20604;-71
2022/04/17 07:22:45;;;;;;;4.10;2.33;;;;;;;;;;5010150;28;20026;-72
2022/04/17 07:25:12;;;;;;;4.38;2.20;;;;;;;;;;5006129;28;20105;-69
2022/04/17 07:27:49;;;;;;;4.05;2.58;;;;;;;;;;5008396;28;20033;-72
2022/04/17 07:30:16;;;;;;;6.07;2.85;;;;;;;;;;5006521;28;20052;-80
2022/04/17 07:32:44;;;;;;;4.07;2.67;;;;;;;;;;5004726;28;20053;-70
2022/04/17 07:35:10;;;;;;;4.30;2.63;;;;;;;;;;5009181;28;20239;-73
2022/04/17 07:37:36;;;;;;;4.90;2.92;;;;;;;;;;5009314;28;20030;-73
2022/04/17 07:40:09;;;;;;;3.83;2.67;;;;;;;;;;5011206;28;20377;-72
2022/04/17 07:42:35;;;;;;;3.20;2.38;;;;;;;;;;5009490;28;20514;-71
2022/04/17 07:45:01;;;;;;;5.10;2.60;;;;;;;;;;5003739;28;20033;-74
2022/04/17 07:47:27;;;;;;;3.00;2.70;;;;;;;;;;5009970;28;20049;-73
2022/04/17 07:49:52;;;;;;;4.25;2.45;;;;;;;;;;5008598;28;20116;-74
2022/04/17 07:52:18;;;;;;;4.97;2.20;;;;;;;;;;5002163;28;20112;-74
2022/04/17 07:54:45;;;;;;;2.70;2.03;;;;;;;;;;5006368;28;20377;-73
2022/04/17 07:57:14;;;;;;;3.28;2.00;;;;;;;;;;5010266;28;20503;-73
2022/04/17 07:59:40;;;;;;;3.63;2.17;;;;;;;;;;5003048;28;20444;-73
2022/04/17 08:02:21;;;;;;;2.25;1.80;;;;;;;;;;5007780;28;20225;-73
2022/04/17 08:04:47;;;;;;;3.42;2.05;;;;;;;;;;5007012;28;20038;-74
2022/04/17 08:07:13;;;;;;;4.20;1.80;;;;;;;;;;5008928;28;20034;-74
2022/04/17 08:09:39;;;;;;;4.05;1.80;;;;;;;;;;5006339;28;20057;-70
2022/04/17 08:12:05;;;;;;;6.53;3.25;;;;;;;;;;5009737;28;20109;-71
2022/04/17 08:14:31;;;;;;;3.38;1.98;;;;;;;;;;5009213;28;20164;-72
2022/04/17 08:16:57;;;;;;;3.17;2.03;;;;;;;;;;5006202;28;20041;-72
2022/04/17 08:19:24;;;;;;;2.40;1.80;;;;;;;;;;5004560;28;20080;-73
2022/04/17 08:21:50;;;;;;;3.33;1.98;;;;;;;;;;5001372;28;20116;-76
2022/04/17 08:24:16;;;;;;;4.18;2.20;;;;;;;;;;5010790;28;20567;-78
2022/04/17 08:26:42;;;;;;;4.57;2.33;;;;;;;;;;5004781;28;20030;-74
2022/04/17 08:29:09;;;;;;;4.80;2.58;;;;;;;;;;5008403;28;20488;-74
2022/04/17 08:31:35;;;;;;;3.35;2.10;;;;;;;;;;5005431;28;20080;-75
2022/04/17 08:34:01;;;;;;;4.28;2.35;;;;;;;;;;5009588;28;20025;-74
2022/04/17 08:36:27;;;;;;;4.88;2.10;;;;;;;;;;5000829;28;20029;-75
2022/04/17 08:38:53;;;;;;;3.55;2.33;;;;;;;;;;5004735;28;20081;-74
2022/04/17 08:41:20;;;;;;;4.85;2.53;;;;;;;;;;5004670;28;20037;-75
2022/04/17 08:43:46;;;;;;;5.90;2.80;;;;;;;;;;5009363;28;20034;-75
2022/04/17 08:46:12;;;;;;;5.45;2.90;;;;;;;;;;4998152;28;20038;-74
2022/04/17 08:48:39;;;;;;;5.22;2.92;;;;;;;;;;5006608;28;20033;-73
2022/04/17 08:51:05;;;;;;;6.78;2.83;;;;;;;;;;5008900;28;20465;-73
2022/04/17 08:53:34;;;;;;;5.10;3.00;;;;;;;;;;5006840;28;20029;-73
2022/04/17 08:56:00;;;;;;;8.40;3.42;;;;;;;;;;5002523;28;20038;-73
2022/04/17 08:58:26;;;;;;;5.90;3.00;;;;;;;;;;5007838;28;20040;-73
2022/04/17 09:00:52;;;;;;;5.93;2.78;;;;;;;;;;4998435;28;20026;-73
2022/04/17 09:03:18;;;;;;;7.28;2.90;;;;;;;;;;5008898;28;20045;-73
2022/04/17 09:05:44;;;;;;;4.18;2.75;;;;;;;;;;4999859;28;20057;-74
2022/04/17 09:08:14;;;;;;;4.72;2.63;;;;;;;;;;5002064;28;20038;-76
2022/04/17 09:10:41;;;;;;;4.57;2.92;;;;;;;;;;5002636;28;20053;-75
2022/04/17 09:13:07;;;;;;;4.57;2.67;;;;;;;;;;5005590;28;20378;-74
2022/04/17 09:15:33;;;;;;;3.88;2.65;;;;;;;;;;5006229;28;20033;-75
2022/04/17 09:18:00;;;;;;;5.35;3.00;;;;;;;;;;5007966;28;20401;-74
2022/04/17 09:20:27;;;;;;;7.20;3.17;;;;;;;;;;5003286;28;20025;-73
2022/04/17 09:22:54;;;;;;;6.65;2.92;;;;;;;;;;5003682;28;20117;-74
2022/04/17 09:25:24;;;;;;;5.05;3.15;;;;;;;;;;5006342;28;20022;-74
2022/04/17 09:27:58;;;;;;;6.75;3.58;;;;;;;;;;5006052;28;20459;-76
2022/04/17 09:30:25;;;;;;;5.28;2.85;;;;;;;;;;5006435;28;20488;-79
2022/04/17 09:32:51;;;;;;;5.05;2.60;;;;;;;;;;5001265;28;20034;-81
2022/04/17 09:35:21;;;;;;;5.40;2.63;;;;;;;;;;5007716;28;20164;-77
2022/04/17 09:37:47;;;;;;;3.95;2.35;;;;;;;;;;5004288;28;20469;-77
2022/04/17 09:40:18;;;;;;;6.72;2.65;;;;;;;;;;5005051;28;20040;-77
2022/04/17 09:42:47;;;;;;;4.10;2.63;;;;;;;;;;5011572;28;20022;-77
2022/04/17 09:45:13;;;;;;;6.30;2.92;;;;;;;;;;5003156;28;20030;-76
2022/04/17 09:47:39;;;;;;;4.53;2.75;;;;;;;;;;5001687;28;20100;-73
2022/04/17 09:50:09;;;;;;;3.75;2.28;;;;;;;;;;5004439;28;20085;-72
2022/04/17 09:52:41;;;;;;;3.60;2.40;;;;;;;;;;5001136;28;20018;-72
2022/04/17 09:55:07;;;;;;;3.72;2.45;;;;;;;;;;5000510;28;20045;-73
2022/04/17 09:57:34;;;;;;;5.03;2.50;;;;;;;;;;5003309;28;20041;-76
2022/04/17 10:00:12;;;;;;;4.72;2.75;;;;;;;;;;5006917;28;20037;-72
2022/04/17 10:02:38;;;;;;;3.50;2.75;;;;;;;;;;5004160;28;20040;-72
2022/04/17 10:05:05;;;;;;;3.50;2.13;;;;;;;;;;5009925;28;20052;-71
2022/04/17 10:07:32;;;;;;;3.50;2.30;;;;;;;;;;5006988;28;20492;-72
2022/04/17 10:09:58;;;;;;;4.40;2.35;;;;;;;;;;5006403;28;20204;-74
2022/04/17 10:12:25;;;;;;;4.53;2.80;;;;;;;;;;5009999;28;20475;-73
2022/04/17 10:14:53;;;;;;;4.70;2.60;;;;;;;;;;5000952;28;20026;-73
2022/04/17 10:17:21;;;;;;;4.45;2.20;;;;;;;;;;5003282;28;20736;-73
2022/04/17 10:19:50;;;;;;;4.57;2.33;;;;;;;;;;5010533;28;20384;-73
2022/04/17 10:22:18;;;;;;;3.13;2.00;;;;;;;;;;5007875;28;20045;-73
2022/04/17 10:24:51;;;;;;;3.47;2.00;;;;;;;;;;5015183;28;20392;-73
2022/04/17 10:27:19;;;;;;;4.35;2.08;;;;;;;;;;5008458;28;20053;-74
2022/04/17 10:29:48;;;;;;;4.68;2.35;;;;;;;;;;5007575;28;20040;-74
2022/04/17 10:32:29;;;;;;;4.18;2.13;;;;;;;;;;5006221;28;20041;-73
2022/04/17 10:34:55;;;;;;;;;;;;;;;;;;5002050;28;20030;-73
2022/04/17 10:37:40;;;;;;;3.15;2.10;;;;;;;;;;5004810;28;20396;-74
2022/04/17 10:40:10;;;;;;;4.75;2.20;;;;;;;;;;5005982;28;20095;-73
2022/04/17 10:42:36;;;;;;;2.97;2.03;;;;;;;;;;5004886;28;20504;-73
2022/04/17 10:45:03;;;;;;;5.75;1.98;;;;;;;;;;5007405;28;20040;-73
2022/04/17 10:47:30;;;;;;;3.50;2.13;;;;;;;;;;5007067;28;20022;-73
2022/04/17 10:49:56;;;;;;;5.22;1.83;;;;;;;;;;5002428;28;20022;-72
2022/04/17 10:52:32;;;;;;;6.32;2.10;;;;;;;;;;5002680;28;20021;-73
2022/04/17 10:55:08;;;;;;;2.47;1.70;;;;;;;;;;5004355;28;20047;-73
2022/04/17 10:57:44;;;;;;;4.05;2.00;;;;;;;;;;5004712;28;20032;-72
2022/04/17 11:00:26;;;;;;;3.45;2.00;;;;;;;;;;5004506;28;20048;-73
2022/04/17 11:02:52;;;;;;;3.78;1.63;;;;;;;;;;5005983;28;20026;-72
2022/04/17 11:06:09;;;;;;;2.63;1.90;;;;;;;;;;5007692;28;20499;-73
2022/04/17 11:08:25;;;;;;;1.83;1.40;;;;;;;;;;5004431;28;20045;-72
2022/04/17 11:10:54;;;;;;;2.38;1.40;;;;;;;;;;5005931;28;20077;-72
2022/04/17 11:13:21;;;;;;;2.33;1.45;;;;;;;;;;5002403;28;20029;-73
2022/04/17 11:15:55;;;;;;;2.53;1.50;;;;;;;;;;5005149;28;20438;-74
2022/04/17 11:18:24;;;;;;;2.33;1.40;;;;;;;;;;5005347;28;20481;-71
2022/04/17 11:20:53;;;;;;;4.03;1.48;;;;;;;;;;5006105;28;20076;-70
2022/04/17 11:23:38;;;;;;;2.55;1.10;;;;;;;;;;5014451;28;20060;-72
2022/04/17 11:26:04;;;;;;;2.90;1.85;;;;;;;;;;4999583;28;20118;-73
2022/04/17 11:28:34;;;;;;;1.58;1.08;;;;;;;;;;5008185;28;20120;-72
2022/04/17 11:31:00;;;;;;;2.17;1.70;;;;;;;;;;5007151;28;20061;-73
2022/04/17 11:33:26;;;;;;;2.10;1.63;;;;;;;;;;5007123;28;20049;-73
2022/04/17 11:35:52;;;;;;;2.38;1.65;;;;;;;;;;5005286;28;20030;-71
2022/04/17 11:38:18;;;;;;;2.97;1.67;;;;;;;;;;5010187;28;20028;-77
2022/04/17 11:40:48;;;;;;;2.80;1.80;;;;;;;;;;5004822;28;20022;-71
2022/04/17 11:43:15;;;;;;;4.28;1.65;;;;;;;;;;5000730;28;20056;-71
2022/04/17 11:45:42;;;;;;;1.85;1.48;;;;;;;;;;5005579;28;20036;-72
2022/04/17 11:48:09;;;;;;;4.93;1.90;;;;;;;;;;5004721;28;20092;-71
2022/04/17 11:50:35;;;;;;;25.67;21.05;;;;;;;;;;4996479;28;20055;-72
2022/04/17 11:53:03;;;;;;;49.63;35.38;;;;;;;;;;5002917;28;20061;-71
2022/04/17 11:55:30;;;;;;;38.17;34.00;;;;;;;;;;5006312;28;20029;-71
2022/04/17 11:57:57;;;;;;;51.15;38.90;;;;;;;;;;5005842;28;20110;-70
2022/04/17 12:00:24;;;;;;;106.35;87.10;;;;;;;;;;5004803;28;20030;-70
2022/04/17 12:03:00;;;;;;;8.23;6.00;;;;;;;;;;5005453;28;20279;-70
2022/04/17 12:05:26;;;;;;;96.22;71.60;;;;;;;;;;5005821;28;20042;-70
2022/04/17 12:08:01;;;;;;;19.80;14.82;;;;;;;;;;5007085;28;20436;-72
2022/04/17 12:10:28;;;;;;;63.85;40.70;;;;;;;;;;5003921;28;20054;-71
2022/04/17 12:12:54;;;;;;;668.97;422.25;;;;;;;;;;5000468;28;20104;-72
2022/04/17 12:15:21;;;;;;;755.70;471.80;;;;;;;;;;4997336;28;20474;-72
2022/04/17 12:17:57;;;;;;;1175.50;597.22;;;;;;;;;;5006836;28;20557;-72
2022/04/17 12:20:23;;;;;;;1333.25;799.42;;;;;;;;;;5000177;28;20118;-73
2022/04/17 12:22:48;;;;;;;30.63;21.70;;;;;;;;;;5002123;28;20108;-72
2022/04/17 12:25:15;;;;;;;345.20;209.07;;;;;;;;;;5006454;28;20047;-72
2022/04/17 12:27:41;;;;;;;142.70;87.50;;;;;;;;;;4999474;28;20133;-72
2022/04/17 12:30:07;;;;;;;237.85;162.52;;;;;;;;;;5006136;28;20108;-75
2022/04/17 12:32:42;;;;;;;58.88;38.42;;;;;;;;;;5001526;28;20092;-73
2022/04/17 12:35:09;;;;;;;235.13;157.20;;;;;;;;;;5003283;28;20038;-72
2022/04/17 12:37:35;;;;;;;9.80;7.50;;;;;;;;;;5007761;28;20057;-72
2022/04/17 12:40:21;;;;;;;60.63;39.85;;;;;;;;;;5009283;28;20113;-73
2022/04/17 12:42:47;;;;;;;10.57;6.28;;;;;;;;;;5007968;28;20048;-73
2022/04/17 12:45:24;;;;;;;49.45;31.95;;;;;;;;;;5005608;28;20038;-72
2022/04/17 12:48:04;;;;;;;180.57;118.60;;;;;;;;;;5011811;28;20025;-71
2022/04/17 12:50:30;;;;;;;5.07;3.67;;;;;;;;;;5007835;28;20481;-72
2022/04/17 12:52:56;;;;;;;480.38;339.27;;;;;;;;;;5005958;28;20029;-72
2022/04/17 12:55:29;;;;;;;50.53;31.52;;;;;;;;;;5008945;28;20084;-72
2022/04/17 12:57:58;;;;;;;12.48;8.10;;;;;;;;;;5006966;28;20034;-77
2022/04/17 13:00:25;;;;;;;68.60;41.72;;;;;;;;;;5005284;28;20050;-72
2022/04/17 13:03:07;;;;;;;10.40;8.00;;;;;;;;;;5007396;28;20038;-72
2022/04/17 13:05:33;;;;;;;48.03;33.80;;;;;;;;;;5000053;28;20088;-71
2022/04/17 13:08:04;;;;;;;26.63;18.05;;;;;;;;;;5003894;28;20035;-71
2022/04/17 13:10:30;;;;;;;7.95;5.70;;;;;;;;;;5003133;28;20053;-71
2022/04/17 13:12:56;;;;;;;47.10;32.03;;;;;;;;;;5002281;28;20042;-71
2022/04/17 13:15:29;;;;;;;82.55;50.85;;;;;;;;;;5003659;28;20128;-71
2022/04/17 13:17:54;;;;;;;23.98;15.52;;;;;;;;;;4999340;28;20536;-71
2022/04/17 13:20:24;;;;;;;5.45;4.22;;;;;;;;;;5000937;28;20030;-72
2022/04/17 13:22:50;;;;;;;4.35;3.50;;;;;;;;;;5003801;28;20030;-72
2022/04/17 13:25:17;;;;;;;4.28;2.92;;;;;;;;;;5003215;28;20026;-72
2022/04/17 13:27:43;;;;;;;5.15;2.88;;;;;;;;;;4998156;28;20026;-72
2022/04/17 13:30:10;;;;;;;2.50;1.98;;;;;;;;;;4997849;28;20030;-71
2022/04/17 13:32:38;;;;;;;5.53;3.78;;;;;;;;;;5004986;28;20022;-71
2022/04/17 13:35:04;;;;;;;4.82;3.40;;;;;;;;;;5004922;28;20026;-74
2022/04/17 13:40:15;;;;;;;3.42;2.92;;;;;;;;;;5008286;28;20499;-73
2022/04/17 13:42:40;;;;;;;4.90;3.60;;;;;;;;;;5004176;28;20022;-73
2022/04/17 13:45:07;;;;;;;7.13;3.92;;;;;;;;;;5004515;28;20490;-72
2022/04/17 13:47:33;;;;;;;3.65;3.00;;;;;;;;;;5007161;28;20553;-73
2022/04/17 13:49:59;;;;;;;4.88;3.00;;;;;;;;;;5016076;28;20072;-72
2022/04/17 13:52:25;;;;;;;2.22;1.98;;;;;;;;;;5012529;28;20026;-71
2022/04/17 13:54:51;;;;;;;3.33;3.03;;;;;;;;;;5011538;28;20040;-72
2022/04/17 13:57:17;;;;;;;3.08;2.60;;;;;;;;;;5023281;28;20026;-71
2022/04/17 13:59:43;;;;;;;3.25;2.67;;;;;;;;;;5014526;28;20030;-71
2022/04/17 14:02:09;;;;;;;3.70;2.80;;;;;;;;;;5006331;28;20034;-71
2022/04/17 14:04:39;;;;;;;3.75;2.85;;;;;;;;;;5013296;28;20389;-71
2022/04/17 14:07:08;;;;;;;2.72;1.98;;;;;;;;;;5008271;28;20477;-71
2022/04/17 14:09:41;;;;;;;2.72;2.08;;;;;;;;;;5010585;28;20046;-71
2022/04/17 14:12:09;;;;;;;2.90;2.30;;;;;;;;;;5008249;28;20389;-71
2022/04/17 14:14:36;;;;;;;3.92;2.22;;;;;;;;;;5010628;28;20589;-72
2022/04/17 14:17:01;;;;;;;3.88;1.83;;;;;;;;;;5006077;28;20029;-72
2022/04/17 14:19:27;;;;;;;2.45;2.00;;;;;;;;;;5001719;28;20436;-71
2022/04/17 14:21:53;;;;;;;2.35;2.10;;;;;;;;;;5006478;28;20030;-72
2022/04/17 14:24:19;;;;;;;4.10;2.10;;;;;;;;;;5011624;28;20022;-71
2022/04/17 14:26:45;;;;;;;3.22;1.85;;;;;;;;;;5008065;28;20029;-72
2022/04/17 14:29:11;;;;;;;2.28;2.00;;;;;;;;;;5009196;28;20041;-72
2022/04/17 14:31:37;;;;;;;2.15;2.00;;;;;;;;;;5013877;28;20018;-72
2022/04/17 14:34:03;;;;;;;4.47;2.50;;;;;;;;;;5013845;28;20046;-72
2022/04/17 14:36:29;;;;;;;3.72;2.00;;;;;;;;;;5006580;28;20077;-72
2022/04/17 14:38:56;;;;;;;3.00;2.40;;;;;;;;;;5004421;28;20481;-71
2022/04/17 14:41:22;;;;;;;4.50;2.63;;;;;;;;;;5007726;28;20535;-72
2022/04/17 14:43:48;;;;;;;3.58;2.33;;;;;;;;;;5008559;28;20053;-71
2022/04/17 14:46:15;;;;;;;3.47;2.60;;;;;;;;;;5008659;28;20396;-71
2022/04/17 14:48:41;;;;;;;3.78;2.72;;;;;;;;;;5011692;28;20044;-72
2022/04/17 14:51:07;;;;;;;2.75;2.55;;;;;;;;;;5014350;28;20022;-72
2022/04/17 14:53:33;;;;;;;3.45;2.90;;;;;;;;;;5012976;28;20862;-72
2022/04/17 14:56:01;;;;;;;3.08;2.40;;;;;;;;;;5008015;28;20436;-72